createdAt,value
2022-08-07T00:01:43.951Z,2.85
2022-08-07T00:04:06.331Z,2.92
2022-08-07T00:06:37.470Z,2.78
2022-08-07T00:09:17.241Z,2.78
2022-08-07T00:11:56.152Z,2.80
2022-08-07T00:14:31.465Z,2.20
2022-08-07T00:17:01.611Z,2.67
2022-08-07T00:20:00.426Z,1.90
2022-08-07T00:22:24.428Z,2.05
2022-08-07T00:25:05.295Z,2.67
2022-08-07T00:27:51.865Z,2.30
2022-08-07T00:30:27.049Z,2.28
2022-08-07T00:32:57.021Z,1.98
2022-08-07T00:35:25.432Z,1.80
2022-08-07T00:37:54.903Z,1.67
2022-08-07T00:40:36.594Z,2.88
2022-08-07T00:43:09.899Z,2.22
2022-08-07T00:45:40.344Z,2.00
2022-08-07T00:48:11.050Z,1.80
2022-08-07T00:50:51.292Z,2.20
2022-08-07T00:53:20.640Z,2.08
2022-08-07T00:56:03.181Z,2.15
2022-08-07T00:58:32.592Z,1.92
2022-08-07T01:01:02.490Z,1.98
2022-08-07T01:06:20.205Z,1.42
2022-08-07T01:08:53.676Z,1.50
2022-08-07T01:12:09.452Z,1.40
2022-08-07T01:14:12.243Z,1.58
2022-08-07T01:16:47.311Z,1.23
2022-08-07T01:19:19.744Z,1.30
2022-08-07T01:21:55.316Z,1.80
2022-08-07T01:24:30.671Z,2.10
2022-08-07T01:27:01.120Z,2.05
2022-08-07T01:29:33.796Z,2.30
2022-08-07T01:32:12.267Z,2.40
2022-08-07T01:34:47.392Z,2.05
2022-08-07T01:37:20.098Z,1.80
2022-08-07T01:39:51.104Z,2.10
2022-08-07T01:42:39.624Z,2.50
2022-08-07T01:45:22.900Z,2.40
2022-08-07T01:48:20.924Z,2.28
2022-08-07T01:50:50.342Z,2.67
2022-08-07T01:54:09.554Z,2.28
2022-08-07T01:56:15.368Z,3.85
2022-08-07T01:58:50.958Z,3.78
2022-08-07T02:02:00.170Z,2.97
2022-08-07T02:04:26.666Z,3.33
2022-08-07T02:07:02.160Z,2.97
2022-08-07T02:09:54.709Z,2.42
2022-08-07T02:12:29.310Z,2.45
2022-08-07T02:15:01.600Z,2.40
2022-08-07T02:17:49.802Z,2.50
2022-08-07T02:20:23.549Z,2.13
2022-08-07T02:22:59.678Z,2.45
2022-08-07T02:26:31.905Z,2.30
2022-08-07T02:28:24.673Z,2.20
2022-08-07T02:30:56.856Z,2.13
2022-08-07T02:33:42.166Z,2.90
2022-08-07T02:36:29.081Z,3.30
2022-08-07T02:39:16.747Z,2.85
2022-08-07T02:41:56.801Z,3.53
2022-08-07T02:44:34.519Z,3.58
2022-08-07T02:47:06.870Z,3.17
2022-08-07T02:49:57.753Z,3.75
2022-08-07T02:52:30.958Z,3.00
2022-08-07T02:55:04.083Z,3.38
2022-08-07T02:57:37.706Z,4.10
2022-08-07T03:00:11.080Z,3.83
2022-08-07T03:02:54.802Z,4.05
2022-08-07T03:05:25.332Z,3.78
2022-08-07T03:10:46.721Z,4.18
2022-08-07T03:13:20.303Z,3.50
2022-08-07T03:15:56.299Z,3.65
2022-08-07T03:18:34.965Z,3.50
2022-08-07T03:21:08.889Z,3.40
2022-08-07T03:24:20.399Z,3.03
2022-08-07T03:26:34.888Z,3.55
2022-08-07T03:29:11.215Z,4.40
2022-08-07T03:31:46.585Z,4.85
2022-08-07T03:34:22.168Z,4.28
2022-08-07T03:36:53.968Z,4.28
2022-08-07T03:40:00.002Z,4.07
2022-08-07T03:44:53.256Z,3.92
2022-08-07T03:47:29.604Z,3.63
2022-08-07T03:50:17.575Z,3.58
2022-08-07T03:52:53.025Z,3.85
2022-08-07T03:55:22.185Z,3.60
2022-08-07T03:58:35.019Z,3.78
2022-08-07T04:00:46.312Z,3.47
2022-08-07T04:03:22.576Z,3.45
2022-08-07T04:05:53.484Z,3.45
2022-08-07T04:08:28.111Z,4.15
2022-08-07T04:12:20.749Z,4.40
2022-08-07T04:14:10.348Z,5.55
2022-08-07T04:16:38.367Z,5.07
2022-08-07T04:19:12.828Z,5.50
2022-08-07T04:22:05.360Z,4.18
2022-08-07T04:24:42.046Z,4.10
2022-08-07T04:27:15.187Z,3.63
2022-08-07T04:30:02.010Z,3.35
2022-08-07T04:32:58.429Z,3.20
2022-08-07T04:35:35.427Z,2.28
2022-08-07T04:38:11.542Z,2.80
2022-08-07T04:40:52.418Z,2.83
2022-08-07T04:44:10.216Z,2.60
2022-08-07T04:46:29.448Z,2.65
2022-08-07T04:49:18.310Z,3.05
2022-08-07T04:52:04.575Z,3.10
2022-08-07T04:54:37.705Z,3.60
2022-08-07T04:58:12.161Z,3.25
2022-08-07T05:00:18.967Z,4.00
2022-08-07T05:03:31.196Z,4.35
2022-08-07T05:06:02.219Z,4.13
2022-08-07T05:09:01.562Z,4.55
2022-08-07T05:11:57.422Z,3.67
2022-08-07T05:14:52.380Z,3.88
2022-08-07T05:18:00.648Z,3.47
2022-08-07T05:20:14.707Z,3.72
2022-08-07T05:22:49.059Z,3.40
2022-08-07T05:25:25.884Z,3.97
2022-08-07T05:28:20.317Z,3.75
2022-08-07T05:30:55.291Z,4.00
2022-08-07T05:33:29.808Z,3.67
2022-08-07T05:36:00.232Z,3.80
2022-08-07T05:38:59.824Z,3.72
2022-08-07T05:41:21.976Z,4.55
2022-08-07T05:44:08.136Z,4.15
2022-08-07T05:46:44.119Z,4.72
2022-08-07T05:49:14.431Z,4.50
2022-08-07T05:51:48.120Z,4.63
2022-08-07T05:54:44.151Z,4.28
2022-08-07T05:57:11.793Z,3.90
2022-08-07T05:59:55.637Z,4.70
2022-08-07T06:02:30.713Z,4.32
2022-08-07T06:05:06.042Z,4.38
2022-08-07T06:08:13.406Z,4.45
2022-08-07T06:12:55.880Z,4.50
2022-08-07T06:15:39.419Z,4.90
2022-08-07T06:18:14.498Z,4.85
2022-08-07T06:20:51.150Z,4.47
2022-08-07T06:24:38.584Z,4.50
2022-08-07T06:26:27.431Z,4.80
2022-08-07T06:29:01.217Z,5.63
2022-08-07T06:31:38.364Z,4.20
2022-08-07T06:34:15.256Z,4.85
2022-08-07T06:36:47.975Z,4.70
2022-08-07T06:40:16.390Z,4.47
2022-08-07T06:42:17.591Z,4.68
2022-08-07T06:45:07.777Z,4.22
2022-08-07T06:47:48.270Z,3.88
2022-08-07T06:50:30.447Z,4.22
2022-08-07T06:53:04.219Z,3.83
2022-08-07T06:55:48.078Z,4.82
2022-08-07T07:01:04.186Z,4.93
2022-08-07T07:03:48.686Z,4.78
2022-08-07T07:06:26.119Z,4.72
2022-08-07T07:08:56.794Z,4.25
2022-08-07T07:12:07.747Z,4.03
2022-08-07T07:14:21.783Z,4.30
2022-08-07T07:16:54.414Z,4.18
2022-08-07T07:19:56.513Z,5.13
2022-08-07T07:22:36.413Z,4.15
2022-08-07T07:26:30.773Z,3.72
2022-08-07T07:28:03.026Z,3.65
2022-08-07T07:30:40.145Z,3.53
2022-08-07T07:33:12.195Z,3.83
2022-08-07T07:36:03.912Z,3.75
2022-08-07T07:38:35.000Z,4.13
2022-08-07T07:41:08.849Z,3.42
2022-08-07T07:44:14.901Z,3.50
2022-08-07T07:46:38.539Z,3.25
2022-08-07T07:50:35.099Z,2.97
2022-08-07T07:52:13.913Z,3.13
2022-08-07T07:54:50.544Z,2.28
2022-08-07T07:57:29.065Z,3.10
2022-08-07T08:00:12.508Z,2.28
2022-08-07T08:03:04.586Z,2.33
2022-08-07T08:05:53.714Z,1.80
2022-08-07T08:08:34.447Z,2.28
2022-08-07T08:11:08.661Z,2.40
2022-08-07T08:13:53.461Z,1.75
2022-08-07T08:16:31.010Z,2.13
2022-08-07T08:19:09.659Z,1.88
2022-08-07T08:22:07.810Z,1.67
2022-08-07T08:25:04.781Z,1.85
2022-08-07T08:27:56.770Z,1.65
2022-08-07T08:30:28.971Z,1.52
2022-08-07T08:33:01.453Z,1.73
2022-08-07T08:35:39.515Z,1.40
2022-08-07T08:38:17.940Z,1.60
2022-08-07T08:40:54.751Z,1.77
2022-08-07T08:43:42.820Z,1.73
2022-08-07T08:46:29.903Z,1.20
2022-08-07T08:49:08.266Z,5.72
2022-08-07T08:52:13.338Z,1.37
2022-08-07T08:54:42.985Z,1.05
2022-08-07T08:57:21.495Z,0.70
2022-08-07T08:59:58.236Z,0.80
2022-08-07T09:02:38.662Z,0.73
2022-08-07T09:05:32.070Z,0.70
2022-08-07T09:08:24.313Z,0.55
2022-08-07T09:11:05.636Z,0.73
2022-08-07T09:13:44.410Z,0.30
2022-08-07T09:16:22.758Z,0.30
2022-08-07T09:19:51.821Z,0.70
2022-08-07T09:24:28.762Z,0.63
2022-08-07T09:25:17.269Z,0.73
2022-08-07T09:28:01.157Z,0.60
2022-08-07T09:30:44.177Z,0.65
2022-08-07T09:33:52.552Z,0.60
2022-08-07T09:36:31.177Z,0.70
2022-08-07T09:39:54.148Z,0.85
2022-08-07T09:42:22.930Z,0.80
2022-08-07T09:47:24.493Z,0.90
2022-08-07T09:48:12.033Z,0.77
2022-08-07T09:50:55.467Z,0.80
2022-08-07T09:53:25.785Z,0.77
2022-08-07T09:56:19.675Z,0.70
2022-08-07T09:59:21.587Z,0.60
2022-08-07T10:02:10.030Z,0.70
2022-08-07T10:05:00.915Z,0.52
2022-08-07T10:08:05.271Z,0.60
2022-08-07T10:11:59.437Z,0.98
2022-08-07T10:14:01.654Z,0.60
2022-08-07T10:17:14.189Z,0.60
2022-08-07T10:20:00.512Z,0.80
2022-08-07T10:22:56.220Z,0.68
2022-08-07T10:25:43.052Z,0.65
2022-08-07T10:28:38.390Z,0.60
2022-08-07T10:31:22.038Z,0.60
2022-08-07T10:34:17.878Z,0.50
2022-08-07T10:37:12.434Z,0.65
2022-08-07T10:39:57.531Z,0.70
2022-08-07T10:42:38.429Z,0.60
2022-08-07T10:45:44.996Z,0.52
2022-08-07T10:48:34.615Z,0.82
2022-08-07T10:51:16.810Z,0.60
2022-08-07T10:54:04.209Z,0.80
2022-08-07T10:56:42.338Z,0.50
2022-08-07T10:59:22.083Z,0.60
2022-08-07T11:02:05.457Z,0.70
2022-08-07T11:04:53.899Z,0.60
2022-08-07T11:10:27.544Z,0.60
2022-08-07T11:13:02.493Z,0.60
2022-08-07T11:15:35.911Z,0.52
2022-08-07T11:18:12.581Z,1.05
2022-08-07T11:20:49.519Z,0.80
2022-08-07T11:23:30.616Z,0.73
2022-08-07T11:26:13.335Z,0.93
2022-08-07T11:28:55.140Z,0.70
2022-08-07T11:31:38.395Z,0.80
2022-08-07T11:34:18.103Z,0.90
2022-08-07T11:37:00.430Z,0.70
2022-08-07T11:39:59.780Z,1.00
2022-08-07T11:42:40.078Z,0.70
2022-08-07T11:45:23.763Z,0.60
2022-08-07T11:48:31.565Z,0.80
2022-08-07T11:51:41.157Z,0.70
2022-08-07T11:54:18.528Z,0.65
2022-08-07T11:57:06.852Z,0.70
2022-08-07T12:00:10.041Z,1.00
2022-08-07T12:03:41.735Z,0.77
2022-08-07T12:06:37.057Z,0.85
2022-08-07T12:09:16.469Z,0.70
2022-08-07T12:12:10.576Z,0.68
2022-08-07T12:14:53.887Z,0.60
2022-08-07T12:17:33.578Z,0.80
2022-08-07T12:20:20.070Z,0.70
2022-08-07T12:24:06.153Z,0.75
2022-08-07T12:26:28.595Z,0.75
2022-08-07T12:29:07.410Z,0.88
2022-08-07T12:32:02.018Z,0.50
2022-08-07T12:34:33.195Z,0.80
2022-08-07T12:37:08.744Z,0.73
2022-08-07T12:39:50.723Z,0.57
2022-08-07T12:42:27.497Z,0.60
2022-08-07T12:45:05.716Z,0.65
2022-08-07T12:47:43.943Z,0.65
2022-08-07T12:50:34.184Z,0.55
2022-08-07T12:53:17.799Z,0.60
2022-08-07T12:56:02.504Z,0.65
2022-08-07T12:58:37.561Z,0.60
2022-08-07T13:01:19.772Z,0.70
2022-08-07T13:04:06.431Z,0.60
2022-08-07T13:07:08.096Z,0.75
2022-08-07T13:10:19.561Z,0.63
2022-08-07T13:12:56.059Z,0.68
2022-08-07T13:15:31.630Z,0.60
2022-08-07T13:18:18.465Z,0.65
2022-08-07T13:21:00.911Z,0.60
2022-08-07T13:24:04.144Z,0.98
2022-08-07T13:26:35.673Z,0.75
2022-08-07T13:29:12.931Z,0.80
2022-08-07T13:31:57.917Z,0.80
2022-08-07T13:34:39.352Z,0.90
2022-08-07T13:37:21.611Z,0.73
2022-08-07T13:40:35.413Z,0.70
2022-08-07T13:42:53.769Z,0.75
2022-08-07T13:46:11.379Z,0.80
2022-08-07T13:51:27.412Z,0.80
2022-08-07T13:54:01.651Z,0.90
2022-08-07T13:56:35.357Z,0.90
2022-08-07T13:59:12.755Z,0.88
2022-08-07T14:01:50.987Z,1.08
2022-08-07T14:04:35.766Z,0.70
2022-08-07T14:07:11.326Z,0.70
2022-08-07T14:10:01.422Z,0.60
2022-08-07T14:12:42.021Z,0.55
2022-08-07T14:15:28.224Z,0.70
2022-08-07T14:18:28.000Z,0.82
2022-08-07T14:21:20.601Z,0.70
2022-08-07T14:24:03.928Z,0.70
2022-08-07T14:26:38.994Z,0.80
2022-08-07T14:30:07.314Z,0.88
2022-08-07T14:32:04.804Z,0.73
2022-08-07T14:34:34.811Z,0.60
2022-08-07T14:37:17.622Z,0.60
2022-08-07T14:40:16.211Z,0.60
2022-08-07T14:43:01.263Z,0.80
2022-08-07T14:45:48.691Z,0.70
2022-08-07T14:48:20.242Z,0.80
2022-08-07T14:50:53.205Z,1.00
2022-08-07T14:54:08.877Z,0.60
2022-08-07T14:56:15.409Z,0.60
2022-08-07T14:59:13.958Z,0.70
2022-08-07T15:01:54.333Z,0.85
2022-08-07T15:04:28.848Z,0.70
2022-08-07T15:06:58.267Z,0.90
2022-08-07T15:09:58.181Z,0.80
2022-08-07T15:12:30.451Z,0.77
2022-08-07T15:15:07.729Z,0.70
2022-08-07T15:17:55.546Z,0.82
2022-08-07T15:20:33.656Z,0.70
2022-08-07T15:26:20.924Z,1.15
2022-08-07T15:28:59.639Z,0.70
2022-08-07T15:32:01.554Z,0.95
2022-08-07T15:34:36.255Z,0.65
2022-08-07T15:37:07.117Z,0.75
2022-08-07T15:42:46.487Z,0.73
2022-08-07T15:45:55.731Z,0.70
2022-08-07T15:48:25.817Z,0.90
2022-08-07T15:51:09.021Z,0.70
2022-08-07T15:53:51.805Z,0.80
2022-08-07T15:56:24.645Z,0.90
2022-08-07T15:58:58.042Z,0.77
2022-08-07T16:01:39.378Z,1.05
2022-08-07T16:04:14.639Z,1.00
2022-08-07T16:06:49.600Z,1.02
2022-08-07T16:09:23.422Z,0.85
2022-08-07T16:12:37.938Z,0.90
2022-08-07T16:15:55.146Z,1.10
2022-08-07T16:18:43.450Z,1.00
2022-08-07T16:21:56.884Z,0.70
2022-08-07T16:24:34.924Z,1.00
2022-08-07T16:27:18.235Z,0.93
2022-08-07T16:30:31.435Z,1.00
2022-08-07T16:34:02.249Z,1.40
2022-08-07T16:36:20.129Z,0.95
2022-08-07T16:39:06.058Z,0.98
2022-08-07T16:41:56.036Z,0.90
2022-08-07T16:45:04.045Z,0.80
2022-08-07T16:48:28.699Z,0.90
2022-08-07T16:51:54.560Z,1.10
2022-08-07T16:54:32.695Z,0.95
2022-08-07T16:58:00.751Z,0.95
2022-08-07T17:00:29.895Z,1.17
2022-08-07T17:03:58.435Z,1.10
2022-08-07T17:06:31.435Z,1.17
2022-08-07T17:09:14.321Z,1.15
2022-08-07T17:12:35.611Z,1.38
2022-08-07T17:15:05.350Z,1.10
2022-08-07T17:17:46.390Z,1.20
2022-08-07T17:20:29.896Z,1.27
2022-08-07T17:23:11.400Z,1.52
2022-08-07T17:25:54.593Z,1.20
2022-08-07T17:28:32.529Z,1.30
2022-08-07T17:31:15.690Z,1.20
2022-08-07T17:34:15.025Z,1.15
2022-08-07T17:36:57.476Z,1.20
2022-08-07T17:39:57.903Z,1.00
2022-08-07T17:42:58.479Z,1.30
2022-08-07T17:45:34.170Z,1.00
2022-08-07T17:48:10.352Z,1.10
2022-08-07T17:50:54.379Z,1.23
2022-08-07T17:53:59.486Z,1.40
2022-08-07T17:56:30.080Z,1.40
2022-08-07T17:59:09.803Z,1.50
2022-08-07T18:01:48.545Z,1.30
2022-08-07T18:04:31.221Z,1.60
2022-08-07T18:07:23.750Z,1.50
2022-08-07T18:10:07.254Z,1.77
2022-08-07T18:13:09.753Z,1.40
2022-08-07T18:15:51.819Z,1.73
2022-08-07T18:18:45.046Z,1.85
2022-08-07T18:21:38.365Z,1.50
2022-08-07T18:24:32.973Z,1.20
2022-08-07T18:27:17.432Z,1.70
2022-08-07T18:30:31.316Z,1.60
2022-08-07T18:33:39.128Z,1.83
2022-08-07T18:36:33.378Z,1.58
2022-08-07T18:40:08.770Z,1.63
2022-08-07T18:42:17.428Z,1.95
2022-08-07T18:48:01.283Z,1.35
2022-08-07T18:50:54.379Z,1.40
2022-08-07T18:53:39.827Z,1.50
2022-08-07T18:56:16.256Z,1.48
2022-08-07T18:59:00.789Z,1.67
2022-08-07T19:02:17.344Z,2.10
2022-08-07T19:04:59.439Z,1.30
2022-08-07T19:07:34.852Z,1.60
2022-08-07T19:10:12.144Z,1.30
2022-08-07T19:12:57.844Z,1.50
2022-08-07T19:16:04.956Z,1.65
2022-08-07T19:18:45.159Z,1.60
2022-08-07T19:21:44.157Z,1.45
2022-08-07T19:24:30.845Z,1.55
2022-08-07T19:28:58.313Z,1.58
2022-08-07T19:31:06.200Z,2.72
2022-08-07T19:32:46.961Z,2.70
2022-08-07T19:35:22.372Z,2.08
2022-08-07T19:37:58.386Z,1.60
2022-08-07T19:40:31.324Z,1.90
2022-08-07T19:43:08.551Z,1.85
2022-08-07T19:46:06.282Z,1.92
2022-08-07T19:48:42.664Z,1.90
2022-08-07T19:51:20.193Z,2.33
2022-08-07T19:54:29.603Z,2.15
2022-08-07T19:57:56.852Z,2.05
2022-08-07T19:59:50.517Z,2.22
2022-08-07T20:02:30.466Z,3.85
2022-08-07T20:05:03.203Z,2.97
2022-08-07T20:07:46.182Z,2.53
2022-08-07T20:10:36.999Z,1.58
2022-08-07T20:13:22.861Z,2.08
2022-08-07T20:15:55.250Z,2.13
2022-08-07T20:18:33.680Z,2.72
2022-08-07T20:21:20.888Z,4.43
2022-08-07T20:23:55.002Z,3.47
2022-08-07T20:26:44.892Z,3.83
2022-08-07T20:29:47.847Z,2.80
2022-08-07T20:32:11.456Z,2.97
2022-08-07T20:34:55.560Z,3.13
2022-08-07T20:37:33.908Z,2.60
2022-08-07T20:40:32.591Z,2.83
2022-08-07T20:42:58.796Z,4.07
2022-08-07T20:45:33.640Z,4.10
2022-08-07T20:48:30.337Z,8.07
2022-08-07T20:54:03.946Z,7.30
2022-08-07T20:56:26.380Z,5.80
2022-08-07T20:59:02.420Z,4.85
2022-08-07T21:01:45.216Z,4.43
2022-08-07T21:04:26.887Z,3.67
2022-08-07T21:06:59.249Z,2.45
2022-08-07T21:09:51.904Z,2.15
2022-08-07T21:12:28.935Z,2.40
2022-08-07T21:15:08.255Z,2.60
2022-08-07T21:18:17.555Z,2.08
2022-08-07T21:23:08.120Z,2.88
2022-08-07T21:25:56.968Z,2.50
2022-08-07T21:28:48.029Z,2.78
2022-08-07T21:31:49.398Z,2.75
2022-08-07T21:34:31.857Z,3.30
2022-08-07T21:37:04.195Z,3.70
2022-08-07T21:39:45.110Z,4.10
2022-08-07T21:42:46.226Z,4.00
2022-08-07T21:46:07.513Z,3.45
2022-08-07T21:48:27.747Z,2.83
2022-08-07T21:51:19.915Z,2.33
2022-08-07T21:53:54.694Z,2.20
2022-08-07T21:56:47.844Z,2.17
2022-08-07T22:00:02.622Z,2.28
2022-08-07T22:02:29.650Z,2.75
2022-08-07T22:05:04.074Z,3.25
2022-08-07T22:07:57.768Z,2.70
2022-08-07T22:10:28.998Z,3.20
2022-08-07T22:13:05.709Z,3.17
2022-08-07T22:16:39.489Z,3.33
2022-08-07T22:18:40.864Z,3.10
2022-08-07T22:21:19.270Z,3.42
2022-08-07T22:23:53.923Z,3.30
2022-08-07T22:26:26.813Z,2.75
2022-08-07T22:29:04.932Z,2.58
2022-08-07T22:32:00.338Z,2.85
2022-08-07T22:34:53.173Z,3.13
2022-08-07T22:38:02.879Z,3.13
2022-08-07T22:40:28.181Z,3.50
2022-08-07T22:43:03.807Z,3.55
2022-08-07T22:46:21.748Z,4.43
2022-08-07T22:49:07.766Z,4.30
2022-08-07T22:52:00.603Z,4.00
2022-08-07T22:57:43.053Z,3.30
2022-08-07T23:00:18.356Z,3.60
2022-08-07T23:03:02.071Z,3.13
2022-08-07T23:06:09.290Z,3.20
2022-08-07T23:08:51.576Z,2.90
2022-08-07T23:11:46.030Z,3.50
2022-08-07T23:17:22.157Z,3.33
2022-08-07T23:20:16.526Z,3.38
2022-08-07T23:23:01.024Z,3.33
2022-08-07T23:25:52.775Z,4.13
2022-08-07T23:28:44.288Z,4.00
2022-08-07T23:32:49.033Z,4.35
2022-08-07T23:34:54.095Z,4.28
2022-08-07T23:38:00.402Z,4.18
2022-08-07T23:40:37.142Z,3.70
2022-08-07T23:43:37.871Z,3.85
2022-08-07T23:46:29.394Z,4.22
2022-08-07T23:49:20.515Z,4.22
2022-08-07T23:53:01.649Z,4.68
2022-08-07T23:54:54.216Z,4.70
2022-08-07T23:57:29.406Z,5.20
